KGLW/GLW METAR and TAF weather

Enter ICAO airport designator
Station Type Date Time Source
KGLW METAR 2020/01/26 00:55 UTC NOAA

KGLW 260055Z AUTO 25006KT 10SM SCT017 OVC027 02/M01 A3009 RMK AO2 T00211010


Station Type Date Time Source
KGLW Decoded METAR 2020/01/26 00:55 UTC NOAA

Glasgow, Glasgow Municipal Airport, KY, United States (KGLW) 37-01-54N 085-57-13W
Jan 25, 2020 - 07:55 PM EST / 2020.01.26 0055 UTC
Wind: from the WSW (250 degrees) at 7 MPH (6 KT):0
Visibility: 10 mile(s):0
Sky conditions: overcast
Temperature: 35.8 F (2.1 C)
Dew Point: 30.2 F (-1.0 C)
Relative Humidity: 79%
Pressure (altimeter): 30.09 in. Hg (1018 hPa)
ob: KGLW 260055Z AUTO 25006KT 10SM SCT017 OVC027 02/M01 A3009 RMK AO2 T00211010
cycle: 1

Station Type Date Time Source
KGLW TAF UTC NOAA

Error!

Example: see airport list